createdAt,value
2022-10-01T00:01:19.247Z,67.61
2022-10-01T00:03:47.844Z,67.03
2022-10-01T00:06:18.234Z,67.65
2022-10-01T00:08:48.681Z,68.62
2022-10-01T00:11:22.254Z,69.31
2022-10-01T00:13:50.318Z,69.23
2022-10-01T00:16:20.586Z,69.57
2022-10-01T00:18:48.753Z,69.79
2022-10-01T00:21:21.668Z,69.07
2022-10-01T00:23:57.407Z,68.43
2022-10-01T00:26:27.311Z,68.66
2022-10-01T00:28:57.950Z,68.48
2022-10-01T00:31:25.599Z,68.52
2022-10-01T00:33:58.306Z,68.52
2022-10-01T00:36:26.673Z,68.13
2022-10-01T00:38:58.616Z,68.25
2022-10-01T00:41:31.716Z,68.39
2022-10-01T00:44:02.406Z,68.14
2022-10-01T00:46:41.781Z,68.12
2022-10-01T00:49:20.523Z,68.16
2022-10-01T00:51:52.797Z,67.80
2022-10-01T00:54:25.328Z,67.91
2022-10-01T00:56:54.779Z,67.78
2022-10-01T00:59:22.155Z,67.77
2022-10-01T01:01:49.790Z,67.72
2022-10-01T01:04:17.504Z,67.67
2022-10-01T01:06:53.754Z,67.23
2022-10-01T01:09:23.171Z,67.30
2022-10-01T01:11:58.453Z,67.65
2022-10-01T01:14:54.391Z,67.58
2022-10-01T01:17:53.607Z,67.42
2022-10-01T01:20:54.931Z,67.59
2022-10-01T01:23:37.348Z,67.46
2022-10-01T01:26:44.504Z,67.75
2022-10-01T01:29:19.954Z,67.66
2022-10-01T01:31:48.690Z,67.82
2022-10-01T01:34:23.520Z,67.78
2022-10-01T01:36:58.556Z,67.91
2022-10-01T01:39:27.057Z,67.33
2022-10-01T01:41:59.415Z,67.24
2022-10-01T01:44:32.021Z,67.56
2022-10-01T01:47:02.028Z,67.78
2022-10-01T01:49:29.854Z,67.76
2022-10-01T01:52:04.435Z,67.88
2022-10-01T01:54:35.675Z,67.93
2022-10-01T01:57:04.156Z,67.77
2022-10-01T01:59:33.826Z,67.45
2022-10-01T02:02:02.159Z,67.54
2022-10-01T02:04:35.606Z,67.33
2022-10-01T02:07:47.653Z,66.81
2022-10-01T02:10:47.173Z,67.33
2022-10-01T02:13:48.130Z,67.27
2022-10-01T02:16:53.453Z,67.35
2022-10-01T02:19:30.347Z,67.58
2022-10-01T02:22:04.539Z,67.58
2022-10-01T02:25:11.439Z,67.46
2022-10-01T02:27:44.515Z,67.24
2022-10-01T02:30:12.526Z,67.41
2022-10-01T02:32:42.640Z,67.58
2022-10-01T02:35:11.980Z,68.03
2022-10-01T02:37:40.802Z,67.82
2022-10-01T02:40:14.636Z,67.89
2022-10-01T02:42:53.501Z,68.32
2022-10-01T02:45:25.770Z,67.93
2022-10-01T02:47:57.820Z,67.62
2022-10-01T02:50:29.622Z,67.78
2022-10-01T02:53:05.404Z,67.51
2022-10-01T02:55:37.951Z,67.71
2022-10-01T02:58:05.916Z,67.53
2022-10-01T03:00:33.580Z,67.83
2022-10-01T03:03:00.906Z,67.43
2022-10-01T03:05:28.806Z,67.49
2022-10-01T03:07:56.115Z,67.72
2022-10-01T03:10:23.421Z,67.90
2022-10-01T03:12:51.016Z,68.14
2022-10-01T03:15:19.372Z,67.84
2022-10-01T03:17:53.637Z,67.55
2022-10-01T03:20:21.264Z,68.03
2022-10-01T03:22:48.648Z,68.32
2022-10-01T03:25:16.210Z,68.50
2022-10-01T03:27:44.100Z,67.88
2022-10-01T03:30:11.838Z,68.12
2022-10-01T03:32:39.397Z,67.58
2022-10-01T03:35:07.450Z,68.00
2022-10-01T03:37:34.734Z,68.43
2022-10-01T03:40:02.168Z,68.34
2022-10-01T03:42:29.708Z,67.88
2022-10-01T03:44:57.009Z,67.94
2022-10-01T03:47:24.370Z,68.37
2022-10-01T03:49:51.992Z,68.05
2022-10-01T03:52:20.387Z,68.13
2022-10-01T03:54:47.699Z,67.94
2022-10-01T03:57:15.408Z,67.89
2022-10-01T03:59:42.704Z,68.48
2022-10-01T04:02:10.263Z,68.55
2022-10-01T04:04:38.087Z,68.36
2022-10-01T04:07:05.380Z,68.34
2022-10-01T04:09:32.669Z,68.66
2022-10-01T04:12:00.395Z,67.47
2022-10-01T04:14:27.777Z,68.23
2022-10-01T04:16:55.067Z,68.36
2022-10-01T04:19:22.700Z,68.10
2022-10-01T04:21:49.997Z,68.01
2022-10-01T04:24:17.310Z,68.21
2022-10-01T04:26:44.868Z,67.80
2022-10-01T04:29:12.163Z,67.70
2022-10-01T04:31:40.298Z,67.82
2022-10-01T04:34:08.029Z,68.08
2022-10-01T04:36:35.312Z,67.95
2022-10-01T04:39:03.098Z,67.78
2022-10-01T04:41:31.785Z,67.82
2022-10-01T04:43:59.855Z,67.47
2022-10-01T04:46:30.050Z,67.42
2022-10-01T04:48:58.253Z,67.54
2022-10-01T04:51:25.743Z,67.66
2022-10-01T04:53:53.148Z,67.70
2022-10-01T04:56:20.707Z,67.44
2022-10-01T04:58:49.097Z,67.69
2022-10-01T05:01:16.447Z,67.41
2022-10-01T05:03:44.024Z,66.98
2022-10-01T05:06:11.349Z,67.30
2022-10-01T05:08:39.098Z,67.40
2022-10-01T05:11:06.666Z,67.50
2022-10-01T05:13:33.968Z,67.31
2022-10-01T05:16:03.012Z,67.42
2022-10-01T05:18:30.669Z,68.24
2022-10-01T05:20:57.962Z,68.34
2022-10-01T05:23:25.347Z,68.23
2022-10-01T05:25:52.917Z,68.15
2022-10-01T05:28:22.603Z,67.66
2022-10-01T05:30:51.068Z,67.78
2022-10-01T05:33:18.783Z,67.76
2022-10-01T05:35:46.088Z,67.93
2022-10-01T05:38:14.402Z,67.86
2022-10-01T05:40:45.894Z,68.76
2022-10-01T05:43:13.673Z,69.26
2022-10-01T05:45:41.612Z,69.11
2022-10-01T05:48:09.809Z,68.95
2022-10-01T05:50:42.452Z,68.90
2022-10-01T05:53:11.270Z,68.39
2022-10-01T05:55:38.746Z,68.04
2022-10-01T05:58:10.345Z,68.43
2022-10-01T06:00:38.959Z,68.78
2022-10-01T06:03:07.824Z,68.54
2022-10-01T06:05:35.807Z,68.53
2022-10-01T06:08:05.574Z,68.68
2022-10-01T06:10:33.163Z,68.62
2022-10-01T06:13:01.804Z,68.51
2022-10-01T06:15:29.607Z,68.99
2022-10-01T06:18:01.144Z,68.58
2022-10-01T06:20:28.460Z,68.92
2022-10-01T06:22:57.349Z,68.59
2022-10-01T06:25:26.100Z,68.72
2022-10-01T06:27:58.243Z,68.19
2022-10-01T06:30:27.711Z,69.20
2022-10-01T06:33:05.445Z,68.62
2022-10-01T06:35:34.447Z,68.60
2022-10-01T06:38:02.402Z,68.42
2022-10-01T06:40:30.616Z,68.11
2022-10-01T06:42:58.815Z,67.87
2022-10-01T06:45:27.773Z,68.27
2022-10-01T06:47:56.618Z,68.33
2022-10-01T06:50:24.900Z,68.55
2022-10-01T06:52:52.766Z,68.21
2022-10-01T06:55:22.208Z,67.99
2022-10-01T06:57:58.332Z,68.29
2022-10-01T07:00:26.706Z,68.17
2022-10-01T07:02:55.693Z,68.52
2022-10-01T07:05:23.918Z,68.25
2022-10-01T07:07:51.614Z,68.13
2022-10-01T07:10:20.938Z,68.07
2022-10-01T07:12:51.661Z,67.44
2022-10-01T07:15:22.719Z,67.14
2022-10-01T07:17:50.906Z,67.60
2022-10-01T07:20:19.887Z,67.34
2022-10-01T07:22:48.582Z,67.95
2022-10-01T07:25:15.946Z,68.34
2022-10-01T07:27:43.399Z,68.32
2022-10-01T07:30:11.339Z,68.83
2022-10-01T07:32:38.700Z,68.63
2022-10-01T07:35:06.798Z,68.25
2022-10-01T07:37:34.444Z,68.52
2022-10-01T07:40:07.136Z,68.83
2022-10-01T07:42:35.806Z,68.88
2022-10-01T07:45:06.738Z,68.92
2022-10-01T07:47:34.154Z,68.63
2022-10-01T07:50:01.997Z,68.75
2022-10-01T07:52:29.296Z,68.72
2022-10-01T07:54:56.585Z,68.58
2022-10-01T07:57:24.131Z,68.67
2022-10-01T07:59:55.712Z,68.77
2022-10-01T08:02:23.786Z,68.62
2022-10-01T08:05:10.120Z,68.40
2022-10-01T08:07:37.395Z,68.08
2022-10-01T08:10:05.524Z,67.90
2022-10-01T08:12:32.833Z,68.13
2022-10-01T08:15:02.143Z,67.55
2022-10-01T08:17:30.117Z,67.95
2022-10-01T08:19:57.403Z,67.98
2022-10-01T08:22:24.696Z,67.63
2022-10-01T08:24:52.246Z,67.93
2022-10-01T08:27:19.652Z,68.02
2022-10-01T08:29:47.058Z,67.75
2022-10-01T08:32:14.780Z,67.87
2022-10-01T08:34:42.064Z,67.21
2022-10-01T08:37:09.339Z,68.08
2022-10-01T08:39:37.170Z,68.07
2022-10-01T08:42:19.684Z,67.58
2022-10-01T08:44:47.869Z,68.09
2022-10-01T08:47:34.917Z,68.44
2022-10-01T08:50:17.147Z,68.40
2022-10-01T08:52:52.463Z,68.10
2022-10-01T08:55:26.666Z,67.61
2022-10-01T08:57:57.057Z,67.50
2022-10-01T09:00:32.691Z,68.03
2022-10-01T09:03:04.738Z,67.45
2022-10-01T09:06:11.510Z,67.32
2022-10-01T09:09:03.896Z,67.19
2022-10-01T09:11:53.455Z,67.17
2022-10-01T09:14:36.324Z,66.79
2022-10-01T09:17:41.587Z,67.40
2022-10-01T09:20:25.729Z,67.69
2022-10-01T09:23:08.518Z,66.87
2022-10-01T09:25:37.471Z,66.85
2022-10-01T09:28:31.977Z,66.69
2022-10-01T09:31:06.645Z,67.22
2022-10-01T09:33:37.481Z,66.30
2022-10-01T09:36:30.295Z,66.61
2022-10-01T09:39:17.461Z,66.28
2022-10-01T09:41:46.081Z,66.35
2022-10-01T09:44:19.145Z,64.86
2022-10-01T09:46:46.734Z,64.57
2022-10-01T09:49:35.432Z,65.43
2022-10-01T09:52:11.007Z,63.74
2022-10-01T09:54:47.135Z,63.96
2022-10-01T09:57:21.977Z,64.25
2022-10-01T10:00:10.608Z,63.53
2022-10-01T10:02:48.173Z,64.00
2022-10-01T10:05:17.607Z,62.51
2022-10-01T10:07:48.882Z,63.15
2022-10-01T10:10:25.545Z,63.96
2022-10-01T10:13:02.021Z,63.85
2022-10-01T10:15:32.517Z,64.32
2022-10-01T10:18:30.063Z,65.16
2022-10-01T10:20:59.204Z,65.79
2022-10-01T10:23:28.892Z,65.12
2022-10-01T10:26:02.706Z,64.86
2022-10-01T10:28:43.641Z,64.81
2022-10-01T10:31:17.055Z,64.89
2022-10-01T10:33:57.390Z,63.52
2022-10-01T10:36:28.941Z,63.29
2022-10-01T10:38:57.309Z,63.50
2022-10-01T10:41:26.537Z,65.17
2022-10-01T10:44:06.582Z,63.58
2022-10-01T10:46:36.186Z,63.13
2022-10-01T10:49:18.584Z,62.71
2022-10-01T10:51:53.697Z,61.72
2022-10-01T10:54:25.726Z,62.92
2022-10-01T10:57:14.533Z,62.46
2022-10-01T10:59:42.146Z,63.26
2022-10-01T11:02:16.805Z,62.10
2022-10-01T11:04:47.130Z,61.59
2022-10-01T11:07:19.752Z,61.71
2022-10-01T11:10:04.066Z,62.55
2022-10-01T11:12:50.408Z,62.84
2022-10-01T11:15:46.963Z,62.68
2022-10-01T11:18:23.900Z,62.78
2022-10-01T11:21:16.443Z,62.69
2022-10-01T11:23:56.236Z,63.09
2022-10-01T11:26:30.460Z,62.98
2022-10-01T11:29:04.456Z,62.89
2022-10-01T11:31:38.208Z,62.71
2022-10-01T11:34:39.923Z,62.48
2022-10-01T11:37:27.814Z,61.73
2022-10-01T11:39:58.118Z,62.64
2022-10-01T11:42:34.706Z,62.69
2022-10-01T11:45:21.555Z,62.70
2022-10-01T11:47:52.988Z,61.45
2022-10-01T11:50:25.767Z,61.45
2022-10-01T11:53:12.742Z,61.57
2022-10-01T11:56:11.064Z,61.49
2022-10-01T11:58:52.942Z,61.81
2022-10-01T12:01:43.408Z,61.28
2022-10-01T12:04:23.407Z,61.83
2022-10-01T12:07:02.700Z,61.78
2022-10-01T12:09:44.958Z,61.86
2022-10-01T12:12:17.215Z,61.68
2022-10-01T12:14:51.708Z,61.65
2022-10-01T12:17:23.537Z,61.36
2022-10-01T12:19:51.150Z,61.84
2022-10-01T12:22:25.594Z,61.32
2022-10-01T12:24:53.883Z,61.68
2022-10-01T12:27:44.317Z,61.92
2022-10-01T12:30:20.635Z,61.24
2022-10-01T12:32:58.088Z,62.52
2022-10-01T12:35:36.032Z,63.19
2022-10-01T12:38:21.189Z,62.57
2022-10-01T12:41:14.403Z,62.26
2022-10-01T12:43:44.547Z,62.02
2022-10-01T12:46:25.205Z,62.02
2022-10-01T12:49:14.550Z,61.81
2022-10-01T12:51:48.755Z,61.73
2022-10-01T12:54:24.244Z,63.34
2022-10-01T12:57:26.882Z,62.65
2022-10-01T13:00:24.883Z,62.23
2022-10-01T13:03:29.492Z,61.73
2022-10-01T13:08:37.256Z,62.45
2022-10-01T13:11:35.077Z,62.57
2022-10-01T13:14:04.234Z,61.78
2022-10-01T13:16:44.524Z,61.78
2022-10-01T13:19:14.903Z,61.54
2022-10-01T13:21:45.061Z,61.34
2022-10-01T13:25:00.798Z,61.49
2022-10-01T13:27:45.270Z,61.99
2022-10-01T13:30:24.164Z,61.66
2022-10-01T13:32:54.100Z,61.70
2022-10-01T13:35:27.933Z,61.49
2022-10-01T13:37:57.025Z,60.92
2022-10-01T13:40:30.386Z,61.70
2022-10-01T13:43:03.536Z,61.75
2022-10-01T13:45:37.141Z,63.96
2022-10-01T13:48:10.263Z,66.69
2022-10-01T13:50:54.622Z,66.45
2022-10-01T13:53:25.220Z,66.75
2022-10-01T13:55:53.945Z,67.01
2022-10-01T13:58:30.278Z,66.30
2022-10-01T14:01:00.835Z,67.11
2022-10-01T14:03:38.639Z,66.58
2022-10-01T14:06:08.927Z,67.13
2022-10-01T14:08:47.345Z,67.13
2022-10-01T14:11:36.981Z,67.45
2022-10-01T14:14:31.166Z,67.77
2022-10-01T14:16:59.217Z,67.32
2022-10-01T14:19:27.530Z,68.42
2022-10-01T14:22:04.084Z,68.84
2022-10-01T14:24:47.779Z,68.44
2022-10-01T14:27:23.413Z,68.42
2022-10-01T14:30:26.360Z,67.99
2022-10-01T14:33:12.248Z,67.35
2022-10-01T14:35:58.200Z,66.75
2022-10-01T14:38:25.497Z,66.66
2022-10-01T14:40:53.788Z,66.97
2022-10-01T14:43:26.362Z,66.87
2022-10-01T14:46:02.504Z,66.49
2022-10-01T14:48:35.159Z,66.41
2022-10-01T14:51:05.665Z,67.17
2022-10-01T14:53:37.573Z,67.18
2022-10-01T14:56:05.903Z,67.11
2022-10-01T14:58:36.777Z,67.56
2022-10-01T15:01:05.071Z,67.01
2022-10-01T15:03:38.200Z,67.31
2022-10-01T15:06:12.621Z,66.42
2022-10-01T15:08:45.064Z,66.82
2022-10-01T15:11:22.197Z,66.84
2022-10-01T15:13:52.026Z,67.09
2022-10-01T15:16:22.485Z,67.61
2022-10-01T15:18:53.658Z,67.68
2022-10-01T15:21:35.607Z,67.85
2022-10-01T15:24:05.204Z,68.85
2022-10-01T15:26:33.108Z,68.53
2022-10-01T15:29:21.041Z,68.36
2022-10-01T15:31:50.521Z,68.51
2022-10-01T15:34:19.553Z,67.54
2022-10-01T15:36:48.177Z,67.70
2022-10-01T15:39:29.916Z,68.23
2022-10-01T15:41:57.619Z,68.49
2022-10-01T15:44:38.721Z,67.70
2022-10-01T15:47:23.491Z,68.09
2022-10-01T15:50:18.128Z,68.10
2022-10-01T15:52:54.389Z,67.83
2022-10-01T15:56:06.192Z,68.04
2022-10-01T15:58:39.074Z,68.92
2022-10-01T16:01:12.340Z,68.66
2022-10-01T16:03:42.265Z,69.28
2022-10-01T16:06:29.735Z,68.86
2022-10-01T16:09:06.209Z,68.13
2022-10-01T16:11:53.654Z,67.58
2022-10-01T16:14:43.823Z,67.33
2022-10-01T16:17:17.128Z,67.34
2022-10-01T16:19:48.499Z,67.48
2022-10-01T16:22:22.218Z,67.14
2022-10-01T16:24:52.123Z,67.04
2022-10-01T16:27:21.961Z,66.61
2022-10-01T16:30:02.706Z,66.81
2022-10-01T16:32:32.968Z,67.14
2022-10-01T16:35:20.281Z,66.45
2022-10-01T16:37:50.061Z,66.10
2022-10-01T16:40:19.134Z,66.25
2022-10-01T16:42:46.950Z,66.31
2022-10-01T16:45:19.905Z,65.91
2022-10-01T16:47:47.503Z,65.51
2022-10-01T16:50:17.026Z,66.37
2022-10-01T16:52:44.881Z,66.75
2022-10-01T16:55:26.561Z,66.96
2022-10-01T16:57:57.042Z,67.03
2022-10-01T17:00:26.052Z,66.98
2022-10-01T17:02:54.147Z,66.75
2022-10-01T17:05:27.281Z,66.52
2022-10-01T17:07:57.659Z,66.25
2022-10-01T17:10:25.439Z,66.24
2022-10-01T17:12:53.081Z,66.22
2022-10-01T17:15:23.239Z,65.77
2022-10-01T17:17:50.547Z,65.26
2022-10-01T17:20:18.001Z,65.53
2022-10-01T17:22:46.163Z,65.29
2022-10-01T17:25:21.552Z,65.48
2022-10-01T17:27:49.683Z,64.97
2022-10-01T17:30:17.205Z,64.96
2022-10-01T17:32:44.818Z,65.27
2022-10-01T17:35:14.289Z,64.88
2022-10-01T17:37:42.091Z,65.02
2022-10-01T17:40:10.555Z,65.32
2022-10-01T17:42:38.380Z,64.83
2022-10-01T17:45:08.800Z,65.11
2022-10-01T17:47:36.662Z,64.87
2022-10-01T17:50:04.561Z,65.18
2022-10-01T17:52:32.533Z,65.57
2022-10-01T17:54:59.828Z,65.49
2022-10-01T17:57:27.423Z,65.65
2022-10-01T17:59:54.786Z,65.66
2022-10-01T18:02:41.054Z,65.75
2022-10-01T18:05:12.159Z,65.66
2022-10-01T18:07:39.525Z,65.76
2022-10-01T18:10:09.498Z,66.25
2022-10-01T18:12:37.157Z,64.92
2022-10-01T18:15:04.845Z,64.85
2022-10-01T18:17:33.218Z,65.05
2022-10-01T18:20:00.894Z,64.53
2022-10-01T18:22:28.627Z,63.92
2022-10-01T18:24:56.167Z,64.39
2022-10-01T18:27:23.751Z,64.98
2022-10-01T18:29:51.048Z,64.10
2022-10-01T18:32:26.281Z,64.94
2022-10-01T18:34:55.851Z,64.90
2022-10-01T18:37:43.989Z,64.89
2022-10-01T18:40:19.308Z,64.93
2022-10-01T18:42:49.421Z,64.03
2022-10-01T18:45:24.566Z,64.45
2022-10-01T18:48:16.296Z,64.19
2022-10-01T18:50:50.212Z,62.91
2022-10-01T18:53:40.500Z,63.63
2022-10-01T18:56:36.390Z,63.45
2022-10-01T18:59:21.877Z,62.56
2022-10-01T19:01:56.537Z,63.00
2022-10-01T19:04:26.862Z,62.67
2022-10-01T19:07:11.663Z,63.55
2022-10-01T19:09:44.033Z,63.38
2022-10-01T19:12:33.275Z,63.10
2022-10-01T19:15:04.648Z,62.70
2022-10-01T19:17:40.111Z,62.42
2022-10-01T19:20:26.241Z,62.28
2022-10-01T19:23:06.652Z,61.53
2022-10-01T19:25:48.650Z,62.26
2022-10-01T19:28:37.852Z,61.55
2022-10-01T19:31:22.365Z,62.96
2022-10-01T19:34:01.233Z,63.37
2022-10-01T19:36:34.811Z,63.38
2022-10-01T19:39:05.111Z,63.39
2022-10-01T19:41:49.086Z,63.23
2022-10-01T19:44:26.047Z,62.82
2022-10-01T19:46:56.393Z,63.38
2022-10-01T19:49:29.091Z,63.10
2022-10-01T19:51:58.397Z,62.93
2022-10-01T19:54:34.583Z,62.73
2022-10-01T19:57:13.284Z,62.42
2022-10-01T19:59:41.061Z,61.93
2022-10-01T20:02:36.401Z,62.89
2022-10-01T20:05:07.066Z,62.16
2022-10-01T20:07:44.873Z,62.41
2022-10-01T20:10:20.651Z,62.66
2022-10-01T20:13:01.958Z,62.29
2022-10-01T20:15:57.425Z,62.40
2022-10-01T20:18:58.801Z,62.23
2022-10-01T20:21:33.144Z,62.12
2022-10-01T20:24:07.379Z,62.00
2022-10-01T20:26:43.878Z,62.06
2022-10-01T20:29:27.405Z,62.45
2022-10-01T20:32:01.690Z,61.90
2022-10-01T20:34:56.377Z,62.13
2022-10-01T20:38:08.603Z,62.94
2022-10-01T20:40:49.788Z,61.96
2022-10-01T20:43:22.311Z,62.32
2022-10-01T20:45:51.921Z,62.08
2022-10-01T20:48:22.961Z,62.33
2022-10-01T20:50:58.411Z,62.75
2022-10-01T20:53:39.114Z,62.38
2022-10-01T20:56:16.696Z,62.05
2022-10-01T20:58:54.608Z,62.15
2022-10-01T21:01:24.875Z,62.02
2022-10-01T21:04:06.332Z,62.35
2022-10-01T21:06:37.934Z,61.68
2022-10-01T21:09:16.012Z,62.34
2022-10-01T21:11:52.375Z,61.36
2022-10-01T21:14:26.868Z,61.60
2022-10-01T21:17:20.235Z,60.82
2022-10-01T21:20:09.000Z,61.25
2022-10-01T21:22:48.151Z,61.57
2022-10-01T21:25:23.178Z,61.10
2022-10-01T21:28:39.830Z,60.62
2022-10-01T21:31:27.781Z,60.53
2022-10-01T21:34:03.081Z,60.56
2022-10-01T21:36:55.916Z,60.09
2022-10-01T21:39:56.940Z,59.56
2022-10-01T21:42:38.178Z,59.83
2022-10-01T21:45:10.356Z,59.88
2022-10-01T21:48:00.510Z,59.92
2022-10-01T21:50:36.056Z,60.69
2022-10-01T21:53:44.864Z,60.96
2022-10-01T21:56:24.111Z,61.43
2022-10-01T21:59:16.867Z,61.35
2022-10-01T22:02:09.331Z,61.15
2022-10-01T22:04:40.079Z,61.54
2022-10-01T22:07:18.374Z,61.22
2022-10-01T22:10:04.139Z,61.79
2022-10-01T22:12:34.147Z,61.38
2022-10-01T22:15:03.899Z,61.64
2022-10-01T22:17:33.236Z,61.88
2022-10-01T22:20:03.420Z,61.81
2022-10-01T22:22:38.514Z,62.04
2022-10-01T22:25:07.261Z,62.44
2022-10-01T22:27:44.112Z,62.22
2022-10-01T22:30:15.140Z,62.21
2022-10-01T22:32:51.604Z,62.63
2022-10-01T22:35:24.917Z,62.65
2022-10-01T22:37:58.875Z,62.87
2022-10-01T22:40:32.981Z,63.18
2022-10-01T22:43:10.954Z,63.01
2022-10-01T22:45:45.491Z,63.40
2022-10-01T22:48:50.599Z,63.05
2022-10-01T22:51:34.936Z,63.47
2022-10-01T22:54:06.802Z,63.66
2022-10-01T22:57:08.469Z,63.18
2022-10-01T23:00:01.080Z,63.17
2022-10-01T23:03:11.411Z,63.33
2022-10-01T23:05:52.223Z,62.95
2022-10-01T23:08:51.785Z,63.86
2022-10-01T23:11:40.928Z,63.84
2022-10-01T23:14:29.600Z,64.08
2022-10-01T23:16:59.799Z,64.45
2022-10-01T23:19:54.097Z,64.79
2022-10-01T23:22:36.812Z,64.13
2022-10-01T23:25:15.748Z,64.07
2022-10-01T23:28:06.603Z,64.95
2022-10-01T23:30:52.552Z,64.49
2022-10-01T23:33:59.159Z,64.79
2022-10-01T23:36:48.297Z,64.09
2022-10-01T23:39:51.391Z,63.48
2022-10-01T23:42:27.893Z,64.81
2022-10-01T23:45:05.065Z,64.06
2022-10-01T23:47:38.054Z,63.82
2022-10-01T23:50:06.865Z,63.81
2022-10-01T23:52:41.288Z,63.96
2022-10-01T23:55:37.018Z,64.02
2022-10-01T23:58:07.924Z,63.53
